Wausau, WI

4:04 PM CST on December 27, 2014 (GMT -0600)
Wausau Downtown | Change Station
CLOSE
Current Station
Airport
Location: Wausau,
Elevation: 1201 ft
Nearby Weather Stations

Elev 1201 ft 44.93 °N, 89.63 °W | Updated 10 minutes ago

Overcast
Overcast
29 °F
Feels Like 20 °F
N
10
Wind Variable Wind from WNW

Today
High -- | Low -- °F
--% Chance of Precip.
Yesterday
High -- | Low -- °F
Precip. -- in
7:35 AM 4:23 PM
Waxing Crescent, 40% visible
Pressure 30.00 in
Visibility 10.0 miles
Clouds Overcast 1800 ft
Windchill 20 °F
Dew Point 24 °F
Humidity 82%
Rainfall 0.32 in
Snow Depth Not available.
UV 0 out of 12
Pollen .10 out of 12
Air Quality Not available.
Flu Activity Not available.
METAR KAUW 272154Z AUTO 29009KT 10SM OVC018 M02/M04 A2995 RMK AO2 SLP159 T10171044

More Conditions Fewer Conditions

Pressure 30.00 in
Visibility 10.0 miles
Clouds Overcast 1800 ft
Windchill 20 °F
Dew Point 24 °F
Humidity 82%
Rainfall 0.32 in
Snow Depth Not available.
UV 0 out of 12
Pollen .10 out of 12
Air Quality Not available.
Flu Activity Not available.
METAR KAUW 272154Z AUTO 29009KT 10SM OVC018 M02/M04 A2995 RMK AO2 SLP159 T10171044

More Conditions Fewer Conditions

10-Day Weather Forecast

Almanac

Astronomy

Dec. 27, 2014 Rise Set
Actual Time
Civil Twilight
Nautical Twilight
Astronomical Twilight
Moon
Length of Visible Light
Length of Day
Tomorrow will be .
, % of the Moon is Illuminated

Today's Extremes

State Highs State Lows

Community

WunderPhotos

Upload Photos

1,781,088 photos uploaded!

WunderBlogs® & News

Nearby

Air Quality

  Air Quality AQ Index Pollutant
Not available.

Snow Depth

Station Depth Elevation

Earthquake Activity

City Distance Mag. Time & Date
Minimum magnitude displayed is 2.5.

Coastal Water Temperatures

Place Temperature

Nearby Weather Stations